sensor_id;sensor_type;location;lat;lon;timestamp;P1;durP1;ratioP1;P2;durP2;ratioP2
69629;SDS011;56857;52.212;5.496;2024-01-30T00:00:39;18.02;;;11.38;;
69629;SDS011;56857;52.212;5.496;2024-01-30T00:03:04;18.95;;;11.32;;
69629;SDS011;56857;52.212;5.496;2024-01-30T00:05:30;20.13;;;11.60;;
69629;SDS011;56857;52.212;5.496;2024-01-30T00:07:55;16.38;;;10.52;;
69629;SDS011;56857;52.212;5.496;2024-01-30T00:10:20;18.35;;;10.73;;
69629;SDS011;56857;52.212;5.496;2024-01-30T00:12:46;15.55;;;10.48;;
69629;SDS011;56857;52.212;5.496;2024-01-30T00:15:11;16.45;;;10.43;;
69629;SDS011;56857;52.212;5.496;2024-01-30T00:17:37;16.67;;;10.15;;
69629;SDS011;56857;52.212;5.496;2024-01-30T00:20:02;17.25;;;10.95;;
69629;SDS011;56857;52.212;5.496;2024-01-30T00:22:28;16.45;;;10.32;;
69629;SDS011;56857;52.212;5.496;2024-01-30T00:24:53;16.98;;;10.75;;
69629;SDS011;56857;52.212;5.496;2024-01-30T00:27:19;19.73;;;11.25;;
69629;SDS011;56857;52.212;5.496;2024-01-30T00:29:44;19.88;;;12.05;;
69629;SDS011;56857;52.212;5.496;2024-01-30T00:32:09;20.38;;;10.88;;
69629;SDS011;56857;52.212;5.496;2024-01-30T00:34:34;17.13;;;11.13;;
69629;SDS011;56857;52.212;5.496;2024-01-30T00:37:00;17.95;;;11.35;;
69629;SDS011;56857;52.212;5.496;2024-01-30T00:39:25;18.33;;;11.30;;
69629;SDS011;56857;52.212;5.496;2024-01-30T00:41:50;17.42;;;11.13;;
69629;SDS011;56857;52.212;5.496;2024-01-30T00:44:16;22.08;;;12.25;;
69629;SDS011;56857;52.212;5.496;2024-01-30T00:46:41;18.63;;;11.88;;
69629;SDS011;56857;52.212;5.496;2024-01-30T00:49:06;19.05;;;11.88;;
69629;SDS011;56857;52.212;5.496;2024-01-30T00:51:32;20.73;;;11.70;;
69629;SDS011;56857;52.212;5.496;2024-01-30T00:53:57;22.73;;;11.77;;
69629;SDS011;56857;52.212;5.496;2024-01-30T00:56:22;18.75;;;11.68;;
69629;SDS011;56857;52.212;5.496;2024-01-30T00:58:48;19.15;;;11.88;;
69629;SDS011;56857;52.212;5.496;2024-01-30T01:01:13;20.15;;;10.38;;
69629;SDS011;56857;52.212;5.496;2024-01-30T01:03:38;18.60;;;11.52;;
69629;SDS011;56857;52.212;5.496;2024-01-30T01:06:04;17.88;;;11.52;;
69629;SDS011;56857;52.212;5.496;2024-01-30T01:08:29;20.20;;;12.07;;
69629;SDS011;56857;52.212;5.496;2024-01-30T01:10:54;19.25;;;11.93;;
69629;SDS011;56857;52.212;5.496;2024-01-30T01:13:20;18.65;;;11.50;;
69629;SDS011;56857;52.212;5.496;2024-01-30T01:15:45;19.67;;;12.27;;
69629;SDS011;56857;52.212;5.496;2024-01-30T01:18:10;20.00;;;12.52;;
69629;SDS011;56857;52.212;5.496;2024-01-30T01:20:36;18.33;;;11.38;;
69629;SDS011;56857;52.212;5.496;2024-01-30T01:23:01;18.27;;;11.90;;
69629;SDS011;56857;52.212;5.496;2024-01-30T01:25:26;17.88;;;11.27;;
69629;SDS011;56857;52.212;5.496;2024-01-30T01:27:52;18.88;;;11.27;;
69629;SDS011;56857;52.212;5.496;2024-01-30T01:30:17;20.10;;;11.88;;
69629;SDS011;56857;52.212;5.496;2024-01-30T01:32:43;18.35;;;11.60;;
69629;SDS011;56857;52.212;5.496;2024-01-30T01:35:08;16.60;;;10.77;;
69629;SDS011;56857;52.212;5.496;2024-01-30T01:37:33;17.85;;;11.38;;
69629;SDS011;56857;52.212;5.496;2024-01-30T01:39:59;18.05;;;11.75;;
69629;SDS011;56857;52.212;5.496;2024-01-30T01:42:24;19.05;;;12.30;;
69629;SDS011;56857;52.212;5.496;2024-01-30T01:44:50;19.07;;;10.97;;
69629;SDS011;56857;52.212;5.496;2024-01-30T01:47:15;21.50;;;11.38;;
69629;SDS011;56857;52.212;5.496;2024-01-30T01:49:40;16.13;;;10.52;;
69629;SDS011;56857;52.212;5.496;2024-01-30T01:52:06;20.20;;;11.23;;
69629;SDS011;56857;52.212;5.496;2024-01-30T01:54:31;17.15;;;11.13;;
69629;SDS011;56857;52.212;5.496;2024-01-30T01:56:57;18.88;;;12.13;;
69629;SDS011;56857;52.212;5.496;2024-01-30T01:59:23;19.75;;;11.60;;
69629;SDS011;56857;52.212;5.496;2024-01-30T02:01:49;21.35;;;11.35;;
69629;SDS011;56857;52.212;5.496;2024-01-30T02:04:15;20.02;;;11.85;;
69629;SDS011;56857;52.212;5.496;2024-01-30T02:06:41;18.75;;;11.05;;
69629;SDS011;56857;52.212;5.496;2024-01-30T02:09:08;19.30;;;11.50;;
69629;SDS011;56857;52.212;5.496;2024-01-30T02:11:33;17.85;;;10.50;;
69629;SDS011;56857;52.212;5.496;2024-01-30T02:14:03;17.75;;;10.98;;
69629;SDS011;56857;52.212;5.496;2024-01-30T02:16:29;19.33;;;11.40;;
69629;SDS011;56857;52.212;5.496;2024-01-30T02:18:54;15.40;;;10.20;;
69629;SDS011;56857;52.212;5.496;2024-01-30T02:21:19;17.40;;;10.15;;
69629;SDS011;56857;52.212;5.496;2024-01-30T02:23:46;18.15;;;11.05;;
69629;SDS011;56857;52.212;5.496;2024-01-30T02:26:13;16.63;;;10.30;;
69629;SDS011;56857;52.212;5.496;2024-01-30T02:28:39;15.80;;;10.20;;
69629;SDS011;56857;52.212;5.496;2024-01-30T02:31:04;20.20;;;11.13;;
69629;SDS011;56857;52.212;5.496;2024-01-30T02:33:30;18.40;;;11.23;;
69629;SDS011;56857;52.212;5.496;2024-01-30T02:35:56;21.92;;;12.15;;
69629;SDS011;56857;52.212;5.496;2024-01-30T02:38:21;18.10;;;10.75;;
69629;SDS011;56857;52.212;5.496;2024-01-30T02:40:46;17.75;;;10.77;;
69629;SDS011;56857;52.212;5.496;2024-01-30T02:43:12;17.45;;;11.00;;
69629;SDS011;56857;52.212;5.496;2024-01-30T02:45:37;17.13;;;10.82;;
69629;SDS011;56857;52.212;5.496;2024-01-30T02:48:03;18.47;;;10.33;;
69629;SDS011;56857;52.212;5.496;2024-01-30T02:50:28;17.75;;;10.48;;
69629;SDS011;56857;52.212;5.496;2024-01-30T02:52:54;18.07;;;11.10;;
69629;SDS011;56857;52.212;5.496;2024-01-30T02:55:19;18.02;;;10.50;;
69629;SDS011;56857;52.212;5.496;2024-01-30T02:57:44;16.75;;;9.85;;
69629;SDS011;56857;52.212;5.496;2024-01-30T03:00:10;19.38;;;10.48;;
69629;SDS011;56857;52.212;5.496;2024-01-30T03:02:36;15.65;;;9.63;;
69629;SDS011;56857;52.212;5.496;2024-01-30T03:05:02;17.23;;;9.85;;
69629;SDS011;56857;52.212;5.496;2024-01-30T03:07:28;15.82;;;9.30;;
69629;SDS011;56857;52.212;5.496;2024-01-30T03:09:53;16.55;;;10.30;;
69629;SDS011;56857;52.212;5.496;2024-01-30T03:12:18;19.20;;;10.18;;
69629;SDS011;56857;52.212;5.496;2024-01-30T03:14:44;16.98;;;10.38;;
69629;SDS011;56857;52.212;5.496;2024-01-30T03:17:09;17.80;;;9.70;;
69629;SDS011;56857;52.212;5.496;2024-01-30T03:19:35;19.17;;;11.32;;
69629;SDS011;56857;52.212;5.496;2024-01-30T03:22:00;19.73;;;11.07;;
69629;SDS011;56857;52.212;5.496;2024-01-30T03:24:25;15.95;;;10.68;;
69629;SDS011;56857;52.212;5.496;2024-01-30T03:26:51;18.67;;;10.75;;
69629;SDS011;56857;52.212;5.496;2024-01-30T03:29:16;19.60;;;10.90;;
69629;SDS011;56857;52.212;5.496;2024-01-30T03:31:42;17.50;;;12.00;;
69629;SDS011;56857;52.212;5.496;2024-01-30T03:34:07;17.55;;;11.25;;
69629;SDS011;56857;52.212;5.496;2024-01-30T03:36:32;20.43;;;12.10;;
69629;SDS011;56857;52.212;5.496;2024-01-30T03:38:58;20.25;;;11.73;;
69629;SDS011;56857;52.212;5.496;2024-01-30T03:41:23;17.52;;;10.68;;
69629;SDS011;56857;52.212;5.496;2024-01-30T03:43:48;18.80;;;12.20;;
69629;SDS011;56857;52.212;5.496;2024-01-30T03:46:15;20.38;;;11.40;;
69629;SDS011;56857;52.212;5.496;2024-01-30T03:48:40;17.25;;;10.13;;
69629;SDS011;56857;52.212;5.496;2024-01-30T03:51:05;18.15;;;9.68;;
69629;SDS011;56857;52.212;5.496;2024-01-30T03:53:31;17.93;;;10.63;;
69629;SDS011;56857;52.212;5.496;2024-01-30T03:55:56;16.42;;;10.65;;
69629;SDS011;56857;52.212;5.496;2024-01-30T03:58:21;17.02;;;9.77;;
69629;SDS011;56857;52.212;5.496;2024-01-30T04:00:47;17.55;;;10.63;;
69629;SDS011;56857;52.212;5.496;2024-01-30T04:03:14;17.75;;;10.65;;
69629;SDS011;56857;52.212;5.496;2024-01-30T04:05:39;17.85;;;10.45;;
69629;SDS011;56857;52.212;5.496;2024-01-30T04:08:05;18.95;;;8.45;;
69629;SDS011;56857;52.212;5.496;2024-01-30T04:10:30;16.08;;;9.93;;
69629;SDS011;56857;52.212;5.496;2024-01-30T04:12:55;16.92;;;9.75;;
69629;SDS011;56857;52.212;5.496;2024-01-30T04:15:21;16.73;;;9.52;;
69629;SDS011;56857;52.212;5.496;2024-01-30T04:17:46;17.25;;;9.20;;
69629;SDS011;56857;52.212;5.496;2024-01-30T04:20:14;14.48;;;10.43;;
69629;SDS011;56857;52.212;5.496;2024-01-30T04:22:41;16.27;;;9.45;;
69629;SDS011;56857;52.212;5.496;2024-01-30T04:25:08;16.58;;;9.45;;
69629;SDS011;56857;52.212;5.496;2024-01-30T04:27:33;16.15;;;9.65;;
69629;SDS011;56857;52.212;5.496;2024-01-30T04:29:59;15.73;;;8.90;;
69629;SDS011;56857;52.212;5.496;2024-01-30T04:32:24;15.27;;;9.55;;
69629;SDS011;56857;52.212;5.496;2024-01-30T04:34:49;16.13;;;10.07;;
69629;SDS011;56857;52.212;5.496;2024-01-30T04:37:15;15.00;;;9.00;;
69629;SDS011;56857;52.212;5.496;2024-01-30T04:39:40;14.90;;;9.50;;
69629;SDS011;56857;52.212;5.496;2024-01-30T04:42:05;15.32;;;9.55;;
69629;SDS011;56857;52.212;5.496;2024-01-30T04:44:31;16.08;;;9.30;;
69629;SDS011;56857;52.212;5.496;2024-01-30T04:46:56;17.38;;;9.85;;
69629;SDS011;56857;52.212;5.496;2024-01-30T04:49:21;17.48;;;10.27;;
69629;SDS011;56857;52.212;5.496;2024-01-30T04:51:46;14.88;;;9.80;;
69629;SDS011;56857;52.212;5.496;2024-01-30T04:54:12;16.60;;;9.43;;
69629;SDS011;56857;52.212;5.496;2024-01-30T04:56:37;17.58;;;9.90;;
69629;SDS011;56857;52.212;5.496;2024-01-30T04:59:03;17.90;;;10.65;;
69629;SDS011;56857;52.212;5.496;2024-01-30T05:01:29;16.80;;;9.55;;
69629;SDS011;56857;52.212;5.496;2024-01-30T05:03:54;16.60;;;9.07;;
69629;SDS011;56857;52.212;5.496;2024-01-30T05:06:26;16.67;;;9.05;;
69629;SDS011;56857;52.212;5.496;2024-01-30T05:08:52;16.35;;;9.43;;
69629;SDS011;56857;52.212;5.496;2024-01-30T05:11:18;14.95;;;9.30;;
69629;SDS011;56857;52.212;5.496;2024-01-30T05:13:43;16.77;;;9.30;;
69629;SDS011;56857;52.212;5.496;2024-01-30T05:16:09;17.30;;;9.68;;
69629;SDS011;56857;52.212;5.496;2024-01-30T05:18:34;15.02;;;8.85;;
69629;SDS011;56857;52.212;5.496;2024-01-30T05:20:59;16.35;;;9.40;;
69629;SDS011;56857;52.212;5.496;2024-01-30T05:23:25;17.15;;;9.43;;
69629;SDS011;56857;52.212;5.496;2024-01-30T05:25:50;15.70;;;9.02;;
69629;SDS011;56857;52.212;5.496;2024-01-30T05:28:15;14.80;;;9.27;;
69629;SDS011;56857;52.212;5.496;2024-01-30T05:30:41;15.40;;;9.20;;
69629;SDS011;56857;52.212;5.496;2024-01-30T05:33:06;19.45;;;10.38;;
69629;SDS011;56857;52.212;5.496;2024-01-30T05:35:31;16.70;;;9.17;;
69629;SDS011;56857;52.212;5.496;2024-01-30T05:37:56;16.10;;;9.33;;
69629;SDS011;56857;52.212;5.496;2024-01-30T05:40:22;18.13;;;9.03;;
69629;SDS011;56857;52.212;5.496;2024-01-30T05:42:47;17.13;;;8.73;;
69629;SDS011;56857;52.212;5.496;2024-01-30T05:45:12;14.93;;;8.95;;
69629;SDS011;56857;52.212;5.496;2024-01-30T05:47:38;15.68;;;9.52;;
69629;SDS011;56857;52.212;5.496;2024-01-30T05:50:04;15.70;;;10.27;;
69629;SDS011;56857;52.212;5.496;2024-01-30T05:52:30;14.98;;;9.18;;
69629;SDS011;56857;52.212;5.496;2024-01-30T05:54:56;15.77;;;9.00;;
69629;SDS011;56857;52.212;5.496;2024-01-30T05:57:21;16.10;;;9.15;;
69629;SDS011;56857;52.212;5.496;2024-01-30T05:59:46;16.02;;;8.93;;
69629;SDS011;56857;52.212;5.496;2024-01-30T06:02:11;13.35;;;8.25;;
69629;SDS011;56857;52.212;5.496;2024-01-30T06:04:37;14.80;;;9.13;;
69629;SDS011;56857;52.212;5.496;2024-01-30T06:07:02;18.70;;;9.48;;
69629;SDS011;56857;52.212;5.496;2024-01-30T06:09:28;12.23;;;7.53;;
69629;SDS011;56857;52.212;5.496;2024-01-30T06:11:53;14.50;;;9.05;;
69629;SDS011;56857;52.212;5.496;2024-01-30T06:14:18;13.85;;;9.23;;
69629;SDS011;56857;52.212;5.496;2024-01-30T06:16:44;14.25;;;8.63;;
69629;SDS011;56857;52.212;5.496;2024-01-30T06:19:09;19.83;;;10.43;;
69629;SDS011;56857;52.212;5.496;2024-01-30T06:21:34;17.45;;;9.52;;
69629;SDS011;56857;52.212;5.496;2024-01-30T06:24:00;15.38;;;8.65;;
69629;SDS011;56857;52.212;5.496;2024-01-30T06:26:25;14.65;;;8.57;;
69629;SDS011;56857;52.212;5.496;2024-01-30T06:28:50;17.50;;;8.65;;
69629;SDS011;56857;52.212;5.496;2024-01-30T06:31:15;18.38;;;8.43;;
69629;SDS011;56857;52.212;5.496;2024-01-30T06:33:41;16.38;;;8.52;;
69629;SDS011;56857;52.212;5.496;2024-01-30T06:36:06;15.07;;;8.57;;
69629;SDS011;56857;52.212;5.496;2024-01-30T06:38:31;16.27;;;9.00;;
69629;SDS011;56857;52.212;5.496;2024-01-30T06:40:57;15.77;;;9.43;;
69629;SDS011;56857;52.212;5.496;2024-01-30T06:43:22;17.92;;;8.65;;
69629;SDS011;56857;52.212;5.496;2024-01-30T06:45:47;13.20;;;8.27;;
69629;SDS011;56857;52.212;5.496;2024-01-30T06:48:13;14.05;;;7.85;;
69629;SDS011;56857;52.212;5.496;2024-01-30T06:50:38;14.18;;;7.57;;
69629;SDS011;56857;52.212;5.496;2024-01-30T06:53:03;16.63;;;8.52;;
69629;SDS011;56857;52.212;5.496;2024-01-30T06:55:29;17.27;;;8.75;;
69629;SDS011;56857;52.212;5.496;2024-01-30T06:57:54;15.77;;;8.75;;
69629;SDS011;56857;52.212;5.496;2024-01-30T07:00:19;15.68;;;8.70;;
69629;SDS011;56857;52.212;5.496;2024-01-30T07:02:45;15.20;;;8.18;;
69629;SDS011;56857;52.212;5.496;2024-01-30T07:05:10;15.20;;;8.95;;
69629;SDS011;56857;52.212;5.496;2024-01-30T07:07:35;14.85;;;9.48;;
69629;SDS011;56857;52.212;5.496;2024-01-30T07:10:01;14.25;;;7.95;;
69629;SDS011;56857;52.212;5.496;2024-01-30T07:12:26;15.38;;;8.52;;
69629;SDS011;56857;52.212;5.496;2024-01-30T07:14:52;16.65;;;9.02;;
69629;SDS011;56857;52.212;5.496;2024-01-30T07:17:17;16.15;;;9.10;;
69629;SDS011;56857;52.212;5.496;2024-01-30T07:19:42;16.33;;;9.68;;
69629;SDS011;56857;52.212;5.496;2024-01-30T07:22:08;14.45;;;8.57;;
69629;SDS011;56857;52.212;5.496;2024-01-30T07:24:33;16.25;;;8.52;;
69629;SDS011;56857;52.212;5.496;2024-01-30T07:26:59;17.55;;;9.10;;
69629;SDS011;56857;52.212;5.496;2024-01-30T07:29:24;15.18;;;8.57;;
69629;SDS011;56857;52.212;5.496;2024-01-30T07:31:50;14.07;;;7.83;;
69629;SDS011;56857;52.212;5.496;2024-01-30T07:34:15;13.88;;;7.90;;
69629;SDS011;56857;52.212;5.496;2024-01-30T07:36:41;16.23;;;8.77;;
69629;SDS011;56857;52.212;5.496;2024-01-30T07:39:06;14.80;;;8.50;;
69629;SDS011;56857;52.212;5.496;2024-01-30T07:41:31;13.93;;;8.02;;
69629;SDS011;56857;52.212;5.496;2024-01-30T07:43:57;13.25;;;8.02;;
69629;SDS011;56857;52.212;5.496;2024-01-30T07:46:22;15.77;;;7.80;;
69629;SDS011;56857;52.212;5.496;2024-01-30T07:48:47;16.25;;;8.07;;
69629;SDS011;56857;52.212;5.496;2024-01-30T07:51:13;13.70;;;9.55;;
69629;SDS011;56857;52.212;5.496;2024-01-30T07:53:38;13.65;;;8.50;;
69629;SDS011;56857;52.212;5.496;2024-01-30T07:56:04;14.32;;;7.85;;
69629;SDS011;56857;52.212;5.496;2024-01-30T07:58:30;13.45;;;7.93;;
69629;SDS011;56857;52.212;5.496;2024-01-30T08:00:55;14.32;;;8.63;;
69629;SDS011;56857;52.212;5.496;2024-01-30T08:03:21;20.80;;;10.18;;
69629;SDS011;56857;52.212;5.496;2024-01-30T08:05:46;15.82;;;8.60;;
69629;SDS011;56857;52.212;5.496;2024-01-30T08:08:11;15.23;;;8.77;;
69629;SDS011;56857;52.212;5.496;2024-01-30T08:10:37;15.95;;;8.27;;
69629;SDS011;56857;52.212;5.496;2024-01-30T08:13:02;14.98;;;7.85;;
69629;SDS011;56857;52.212;5.496;2024-01-30T08:15:28;16.80;;;8.50;;
69629;SDS011;56857;52.212;5.496;2024-01-30T08:17:53;17.80;;;8.77;;
69629;SDS011;56857;52.212;5.496;2024-01-30T08:20:18;15.80;;;8.30;;
69629;SDS011;56857;52.212;5.496;2024-01-30T08:22:44;13.48;;;7.88;;
69629;SDS011;56857;52.212;5.496;2024-01-30T08:25:09;15.13;;;7.93;;
69629;SDS011;56857;52.212;5.496;2024-01-30T08:27:34;15.10;;;8.20;;
69629;SDS011;56857;52.212;5.496;2024-01-30T08:29:59;16.30;;;8.38;;
69629;SDS011;56857;52.212;5.496;2024-01-30T08:32:25;16.00;;;8.23;;
69629;SDS011;56857;52.212;5.496;2024-01-30T08:34:50;13.35;;;8.30;;
69629;SDS011;56857;52.212;5.496;2024-01-30T08:37:15;17.17;;;8.77;;
69629;SDS011;56857;52.212;5.496;2024-01-30T08:39:41;16.92;;;8.60;;
69629;SDS011;56857;52.212;5.496;2024-01-30T08:42:06;16.92;;;8.02;;
69629;SDS011;56857;52.212;5.496;2024-01-30T08:44:31;15.32;;;8.30;;
69629;SDS011;56857;52.212;5.496;2024-01-30T08:46:57;18.20;;;8.60;;
69629;SDS011;56857;52.212;5.496;2024-01-30T08:49:22;14.85;;;8.45;;
69629;SDS011;56857;52.212;5.496;2024-01-30T08:51:47;16.63;;;8.77;;
69629;SDS011;56857;52.212;5.496;2024-01-30T08:54:13;16.92;;;8.13;;
69629;SDS011;56857;52.212;5.496;2024-01-30T08:56:38;16.33;;;8.30;;
69629;SDS011;56857;52.212;5.496;2024-01-30T08:59:03;16.13;;;8.20;;
69629;SDS011;56857;52.212;5.496;2024-01-30T09:01:28;15.25;;;9.07;;
69629;SDS011;56857;52.212;5.496;2024-01-30T09:03:54;17.98;;;8.27;;
69629;SDS011;56857;52.212;5.496;2024-01-30T09:06:19;16.85;;;8.75;;
69629;SDS011;56857;52.212;5.496;2024-01-30T09:08:44;17.67;;;9.07;;
69629;SDS011;56857;52.212;5.496;2024-01-30T09:11:11;16.92;;;8.30;;
69629;SDS011;56857;52.212;5.496;2024-01-30T09:13:37;18.33;;;9.13;;
69629;SDS011;56857;52.212;5.496;2024-01-30T09:16:02;18.10;;;8.07;;
69629;SDS011;56857;52.212;5.496;2024-01-30T09:18:28;19.48;;;9.60;;
69629;SDS011;56857;52.212;5.496;2024-01-30T09:20:53;16.52;;;8.20;;
69629;SDS011;56857;52.212;5.496;2024-01-30T09:23:18;20.20;;;9.27;;
69629;SDS011;56857;52.212;5.496;2024-01-30T09:25:44;24.88;;;9.05;;
69629;SDS011;56857;52.212;5.496;2024-01-30T09:28:09;19.70;;;9.15;;
69629;SDS011;56857;52.212;5.496;2024-01-30T09:30:34;18.52;;;7.95;;
69629;SDS011;56857;52.212;5.496;2024-01-30T09:33:00;20.02;;;8.52;;
69629;SDS011;56857;52.212;5.496;2024-01-30T09:35:25;23.13;;;8.50;;
69629;SDS011;56857;52.212;5.496;2024-01-30T09:37:50;16.73;;;7.53;;
69629;SDS011;56857;52.212;5.496;2024-01-30T09:40:16;15.40;;;7.97;;
69629;SDS011;56857;52.212;5.496;2024-01-30T09:42:41;16.35;;;8.43;;
69629;SDS011;56857;52.212;5.496;2024-01-30T09:45:09;22.92;;;9.88;;
69629;SDS011;56857;52.212;5.496;2024-01-30T09:47:41;14.93;;;8.05;;
69629;SDS011;56857;52.212;5.496;2024-01-30T09:50:09;17.67;;;8.75;;
69629;SDS011;56857;52.212;5.496;2024-01-30T09:52:35;19.75;;;8.57;;
69629;SDS011;56857;52.212;5.496;2024-01-30T09:55:01;16.35;;;7.97;;
69629;SDS011;56857;52.212;5.496;2024-01-30T09:57:26;16.48;;;7.88;;
69629;SDS011;56857;52.212;5.496;2024-01-30T09:59:52;15.95;;;8.05;;
69629;SDS011;56857;52.212;5.496;2024-01-30T10:02:17;17.73;;;8.75;;
69629;SDS011;56857;52.212;5.496;2024-01-30T10:04:44;15.15;;;8.20;;
69629;SDS011;56857;52.212;5.496;2024-01-30T10:07:09;13.82;;;8.32;;
69629;SDS011;56857;52.212;5.496;2024-01-30T10:09:36;18.10;;;8.10;;
69629;SDS011;56857;52.212;5.496;2024-01-30T10:12:02;16.15;;;9.00;;
69629;SDS011;56857;52.212;5.496;2024-01-30T10:14:27;16.90;;;8.90;;
69629;SDS011;56857;52.212;5.496;2024-01-30T10:16:52;14.13;;;8.00;;
69629;SDS011;56857;52.212;5.496;2024-01-30T10:19:18;16.10;;;8.37;;
69629;SDS011;56857;52.212;5.496;2024-01-30T10:21:43;18.20;;;7.70;;
69629;SDS011;56857;52.212;5.496;2024-01-30T10:24:08;17.85;;;8.77;;
69629;SDS011;56857;52.212;5.496;2024-01-30T10:26:37;17.55;;;8.48;;
69629;SDS011;56857;52.212;5.496;2024-01-30T10:29:03;16.73;;;7.38;;
69629;SDS011;56857;52.212;5.496;2024-01-30T10:31:28;16.73;;;8.10;;
69629;SDS011;56857;52.212;5.496;2024-01-30T10:33:53;14.05;;;8.30;;
69629;SDS011;56857;52.212;5.496;2024-01-30T10:36:19;18.57;;;7.60;;
69629;SDS011;56857;52.212;5.496;2024-01-30T10:38:53;15.80;;;8.85;;
69629;SDS011;56857;52.212;5.496;2024-01-30T10:41:26;15.85;;;7.28;;
69629;SDS011;56857;52.212;5.496;2024-01-30T10:44:02;15.68;;;7.82;;
69629;SDS011;56857;52.212;5.496;2024-01-30T10:46:32;17.15;;;8.20;;
69629;SDS011;56857;52.212;5.496;2024-01-30T10:49:00;16.60;;;8.60;;
69629;SDS011;56857;52.212;5.496;2024-01-30T10:51:26;15.73;;;7.40;;
69629;SDS011;56857;52.212;5.496;2024-01-30T10:53:52;16.20;;;7.82;;
69629;SDS011;56857;52.212;5.496;2024-01-30T10:56:18;17.67;;;8.25;;
69629;SDS011;56857;52.212;5.496;2024-01-30T10:58:46;16.30;;;8.02;;
69629;SDS011;56857;52.212;5.496;2024-01-30T11:01:12;17.73;;;8.23;;
69629;SDS011;56857;52.212;5.496;2024-01-30T11:03:38;14.85;;;7.82;;
69629;SDS011;56857;52.212;5.496;2024-01-30T11:06:03;17.67;;;8.45;;
69629;SDS011;56857;52.212;5.496;2024-01-30T11:08:31;13.10;;;7.72;;
69629;SDS011;56857;52.212;5.496;2024-01-30T11:10:57;14.68;;;7.93;;
69629;SDS011;56857;52.212;5.496;2024-01-30T11:13:27;15.13;;;7.60;;
69629;SDS011;56857;52.212;5.496;2024-01-30T11:15:52;13.68;;;7.40;;
69629;SDS011;56857;52.212;5.496;2024-01-30T11:18:28;15.10;;;7.30;;
69629;SDS011;56857;52.212;5.496;2024-01-30T11:21:01;13.15;;;7.05;;
69629;SDS011;56857;52.212;5.496;2024-01-30T11:23:27;19.55;;;7.60;;
69629;SDS011;56857;52.212;5.496;2024-01-30T11:25:53;15.55;;;7.63;;
69629;SDS011;56857;52.212;5.496;2024-01-30T11:28:18;14.27;;;6.55;;
69629;SDS011;56857;52.212;5.496;2024-01-30T11:30:46;13.23;;;7.82;;
69629;SDS011;56857;52.212;5.496;2024-01-30T11:33:12;12.68;;;6.00;;
69629;SDS011;56857;52.212;5.496;2024-01-30T11:35:39;12.05;;;5.72;;
69629;SDS011;56857;52.212;5.496;2024-01-30T11:38:08;12.75;;;5.13;;
69629;SDS011;56857;52.212;5.496;2024-01-30T11:40:36;11.40;;;4.38;;
69629;SDS011;56857;52.212;5.496;2024-01-30T11:43:03;9.55;;;5.03;;
69629;SDS011;56857;52.212;5.496;2024-01-30T11:45:29;11.73;;;5.05;;
69629;SDS011;56857;52.212;5.496;2024-01-30T11:47:55;9.05;;;3.95;;
69629;SDS011;56857;52.212;5.496;2024-01-30T11:50:21;10.82;;;4.18;;
69629;SDS011;56857;52.212;5.496;2024-01-30T11:52:47;11.55;;;4.07;;
69629;SDS011;56857;52.212;5.496;2024-01-30T11:55:13;10.13;;;3.50;;
69629;SDS011;56857;52.212;5.496;2024-01-30T11:57:39;7.38;;;2.67;;
69629;SDS011;56857;52.212;5.496;2024-01-30T12:00:05;10.13;;;2.65;;
69629;SDS011;56857;52.212;5.496;2024-01-30T12:02:31;7.45;;;2.08;;
69629;SDS011;56857;52.212;5.496;2024-01-30T12:04:56;8.90;;;2.35;;
69629;SDS011;56857;52.212;5.496;2024-01-30T12:07:22;8.25;;;2.47;;
69629;SDS011;56857;52.212;5.496;2024-01-30T12:09:56;6.80;;;2.22;;
69629;SDS011;56857;52.212;5.496;2024-01-30T12:12:22;6.13;;;2.17;;
69629;SDS011;56857;52.212;5.496;2024-01-30T12:14:50;6.95;;;2.50;;
69629;SDS011;56857;52.212;5.496;2024-01-30T12:17:49;8.20;;;2.80;;
69629;SDS011;56857;52.212;5.496;2024-01-30T12:20:08;10.23;;;3.33;;
69629;SDS011;56857;52.212;5.496;2024-01-30T12:22:39;8.10;;;2.85;;
69629;SDS011;56857;52.212;5.496;2024-01-30T12:25:09;7.47;;;2.55;;
69629;SDS011;56857;52.212;5.496;2024-01-30T12:27:42;10.35;;;3.33;;
69629;SDS011;56857;52.212;5.496;2024-01-30T12:30:08;8.43;;;2.88;;
69629;SDS011;56857;52.212;5.496;2024-01-30T12:32:44;7.90;;;3.42;;
69629;SDS011;56857;52.212;5.496;2024-01-30T12:35:17;9.95;;;3.35;;
69629;SDS011;56857;52.212;5.496;2024-01-30T12:37:44;7.55;;;2.72;;
69629;SDS011;56857;52.212;5.496;2024-01-30T12:40:11;8.23;;;3.22;;
69629;SDS011;56857;52.212;5.496;2024-01-30T12:42:37;7.65;;;3.20;;
69629;SDS011;56857;52.212;5.496;2024-01-30T12:45:03;10.70;;;3.30;;
69629;SDS011;56857;52.212;5.496;2024-01-30T12:47:29;7.82;;;2.63;;
69629;SDS011;56857;52.212;5.496;2024-01-30T12:49:54;8.07;;;2.78;;
69629;SDS011;56857;52.212;5.496;2024-01-30T12:52:20;8.43;;;2.75;;
69629;SDS011;56857;52.212;5.496;2024-01-30T12:54:47;7.22;;;2.78;;
69629;SDS011;56857;52.212;5.496;2024-01-30T12:57:13;10.32;;;3.17;;
69629;SDS011;56857;52.212;5.496;2024-01-30T12:59:38;10.05;;;3.00;;
69629;SDS011;56857;52.212;5.496;2024-01-30T13:02:03;6.47;;;2.53;;
69629;SDS011;56857;52.212;5.496;2024-01-30T13:04:29;6.65;;;2.50;;
69629;SDS011;56857;52.212;5.496;2024-01-30T13:06:54;6.15;;;2.60;;
69629;SDS011;56857;52.212;5.496;2024-01-30T13:09:20;7.47;;;2.88;;
69629;SDS011;56857;52.212;5.496;2024-01-30T13:11:45;9.60;;;2.88;;
69629;SDS011;56857;52.212;5.496;2024-01-30T13:14:10;6.60;;;2.78;;
69629;SDS011;56857;52.212;5.496;2024-01-30T13:16:36;7.17;;;2.83;;
69629;SDS011;56857;52.212;5.496;2024-01-30T13:19:01;7.63;;;2.85;;
69629;SDS011;56857;52.212;5.496;2024-01-30T13:21:27;5.45;;;2.53;;
69629;SDS011;56857;52.212;5.496;2024-01-30T13:23:52;6.53;;;3.05;;
69629;SDS011;56857;52.212;5.496;2024-01-30T13:26:18;6.00;;;2.88;;
69629;SDS011;56857;52.212;5.496;2024-01-30T13:28:43;7.75;;;2.88;;
69629;SDS011;56857;52.212;5.496;2024-01-30T13:31:08;7.43;;;2.42;;
69629;SDS011;56857;52.212;5.496;2024-01-30T13:33:34;6.32;;;2.10;;
69629;SDS011;56857;52.212;5.496;2024-01-30T13:35:59;5.57;;;1.80;;
69629;SDS011;56857;52.212;5.496;2024-01-30T13:38:24;5.68;;;2.10;;
69629;SDS011;56857;52.212;5.496;2024-01-30T13:40:50;6.72;;;2.05;;
69629;SDS011;56857;52.212;5.496;2024-01-30T13:43:15;6.10;;;1.88;;
69629;SDS011;56857;52.212;5.496;2024-01-30T13:45:41;4.53;;;1.75;;
69629;SDS011;56857;52.212;5.496;2024-01-30T13:48:07;5.63;;;1.90;;
69629;SDS011;56857;52.212;5.496;2024-01-30T13:50:32;7.55;;;3.22;;
69629;SDS011;56857;52.212;5.496;2024-01-30T13:52:58;9.88;;;2.55;;
69629;SDS011;56857;52.212;5.496;2024-01-30T13:55:23;5.15;;;2.25;;
69629;SDS011;56857;52.212;5.496;2024-01-30T13:57:48;7.63;;;2.70;;
69629;SDS011;56857;52.212;5.496;2024-01-30T14:00:14;13.82;;;3.78;;
69629;SDS011;56857;52.212;5.496;2024-01-30T14:02:39;8.57;;;3.63;;
69629;SDS011;56857;52.212;5.496;2024-01-30T14:05:05;7.53;;;2.83;;
69629;SDS011;56857;52.212;5.496;2024-01-30T14:07:30;7.22;;;3.00;;
69629;SDS011;56857;52.212;5.496;2024-01-30T14:09:55;10.82;;;3.20;;
69629;SDS011;56857;52.212;5.496;2024-01-30T14:12:21;10.68;;;3.92;;
69629;SDS011;56857;52.212;5.496;2024-01-30T14:14:46;8.88;;;4.55;;
69629;SDS011;56857;52.212;5.496;2024-01-30T14:17:11;9.43;;;3.83;;
69629;SDS011;56857;52.212;5.496;2024-01-30T14:19:36;9.25;;;3.58;;
69629;SDS011;56857;52.212;5.496;2024-01-30T14:22:02;9.02;;;3.33;;
69629;SDS011;56857;52.212;5.496;2024-01-30T14:24:27;7.57;;;3.40;;